Time;durP1;ratioP1;P1;durP2;ratioP2;P2;SDS_P1;SDS_P2;PMS_P1;PMS_P2;Temp;Humidity;BMP_temperature;BMP_pressure;BME280_temperature;BME280_humidity;BME280_pressure;Samples;Min_cycle;Max_cycle;Signal;HPM_P1;HPM_P2
2022/02/28 00:02:01;;;;;;;12.60;6.75;;;;;;;;;;4980238;28;20061;-72
2022/02/28 00:04:27;;;;;;;11.20;6.15;;;;;;;;;;4978714;28;20500;-72
2022/02/28 00:06:54;;;;;;;10.98;6.68;;;;;;;;;;4970888;28;20058;-73
2022/02/28 00:09:20;;;;;;;13.23;7.10;;;;;;;;;;4974534;28;20058;-72
2022/02/28 00:11:47;;;;;;;12.13;6.55;;;;;;;;;;4971830;28;20295;-72
2022/02/28 00:14:13;;;;;;;13.85;6.00;;;;;;;;;;4977814;28;20466;-71
2022/02/28 00:16:40;;;;;;;10.75;6.40;;;;;;;;;;4971980;28;20539;-74
2022/02/28 00:19:06;;;;;;;10.07;6.00;;;;;;;;;;4978242;28;20439;-74
2022/02/28 00:21:33;;;;;;;12.43;6.82;;;;;;;;;;4971253;28;20057;-75
2022/02/28 00:23:59;;;;;;;12.05;6.28;;;;;;;;;;4968524;28;20058;-73
2022/02/28 00:26:26;;;;;;;10.13;5.75;;;;;;;;;;4980234;28;20054;-74
2022/02/28 00:28:52;;;;;;;11.20;6.68;;;;;;;;;;4971062;28;20366;-73
2022/02/28 00:31:19;;;;;;;12.40;6.57;;;;;;;;;;4976174;28;20124;-73
2022/02/28 00:33:45;;;;;;;10.55;6.60;;;;;;;;;;4968932;28;20054;-73
2022/02/28 00:36:11;;;;;;;11.18;6.10;;;;;;;;;;4972188;28;20043;-73
2022/02/28 00:38:38;;;;;;;13.63;6.50;;;;;;;;;;4979732;28;20404;-73
2022/02/28 00:41:04;;;;;;;12.73;6.47;;;;;;;;;;4971359;28;20054;-73
2022/02/28 00:43:31;;;;;;;12.40;6.35;;;;;;;;;;4978201;28;20427;-73
2022/02/28 00:45:57;;;;;;;11.18;6.45;;;;;;;;;;4966060;28;20065;-73
2022/02/28 00:48:23;;;;;;;15.23;6.90;;;;;;;;;;4970167;28;20060;-74
2022/02/28 00:50:49;;;;;;;9.45;5.63;;;;;;;;;;4972228;28;20061;-73
2022/02/28 00:53:16;;;;;;;13.90;6.45;;;;;;;;;;4973321;28;20325;-73
2022/02/28 00:55:43;;;;;;;14.48;6.80;;;;;;;;;;4980958;28;20401;-73
2022/02/28 00:58:09;;;;;;;12.80;6.65;;;;;;;;;;4970917;28;20050;-72
2022/02/28 01:00:36;;;;;;;13.00;6.35;;;;;;;;;;4984034;28;20510;-72
2022/02/28 01:03:02;;;;;;;13.68;7.03;;;;;;;;;;4965309;28;20049;-72
2022/02/28 01:05:29;;;;;;;12.57;6.90;;;;;;;;;;4979692;28;20136;-72
2022/02/28 01:07:56;;;;;;;15.38;6.57;;;;;;;;;;4981899;28;20042;-72
2022/02/28 01:10:22;;;;;;;15.07;6.95;;;;;;;;;;4973428;28;20057;-72
2022/02/28 01:12:49;;;;;;;14.82;6.90;;;;;;;;;;4980342;28;20058;-72
2022/02/28 01:15:17;;;;;;;11.65;6.53;;;;;;;;;;4967857;28;20047;-72
2022/02/28 01:17:43;;;;;;;11.57;6.32;;;;;;;;;;4978639;28;20057;-73
2022/02/28 01:20:10;;;;;;;10.60;6.22;;;;;;;;;;4969441;28;20050;-73
2022/02/28 01:22:36;;;;;;;13.05;6.78;;;;;;;;;;4989552;28;20419;-72
2022/02/28 01:25:08;;;;;;;12.73;6.50;;;;;;;;;;4980856;28;20053;-72
2022/02/28 01:27:34;;;;;;;12.07;6.38;;;;;;;;;;4973742;28;20279;-73
2022/02/28 01:30:00;;;;;;;14.60;6.90;;;;;;;;;;4976156;28;20057;-72
2022/02/28 01:32:27;;;;;;;14.95;6.75;;;;;;;;;;4971001;28;20046;-72
2022/02/28 01:34:53;;;;;;;9.65;5.63;;;;;;;;;;4986764;28;20487;-72
2022/02/28 01:37:19;;;;;;;11.40;6.00;;;;;;;;;;4976850;28;20065;-72
2022/02/28 01:39:46;;;;;;;12.15;5.78;;;;;;;;;;4975759;28;20063;-73
2022/02/28 01:42:13;;;;;;;12.02;6.35;;;;;;;;;;4972535;28;20700;-73
2022/02/28 01:44:40;;;;;;;12.93;5.47;;;;;;;;;;4961860;28;20484;-73
2022/02/28 01:47:06;;;;;;;12.27;5.97;;;;;;;;;;4979426;28;20582;-72
2022/02/28 01:49:33;;;;;;;12.57;6.25;;;;;;;;;;4973125;28;20171;-73
2022/02/28 01:51:59;;;;;;;9.70;5.70;;;;;;;;;;4978558;28;20070;-73
2022/02/28 01:54:25;;;;;;;8.25;5.05;;;;;;;;;;4982359;28;20051;-72
2022/02/28 01:56:52;;;;;;;12.52;5.40;;;;;;;;;;4972102;28;20081;-73
2022/02/28 01:59:19;;;;;;;9.60;5.47;;;;;;;;;;4978534;28;20057;-73
2022/02/28 02:01:45;;;;;;;10.07;4.90;;;;;;;;;;4979282;28;20145;-73
2022/02/28 02:04:12;;;;;;;11.85;5.40;;;;;;;;;;4987089;28;20412;-74
2022/02/28 02:06:38;;;;;;;11.02;5.13;;;;;;;;;;4980352;28;20050;-74
2022/02/28 02:09:04;;;;;;;11.73;6.15;;;;;;;;;;4984166;28;20355;-73
2022/02/28 02:11:32;;;;;;;9.55;5.07;;;;;;;;;;4982301;28;20052;-73
2022/02/28 02:13:58;;;;;;;11.35;4.95;;;;;;;;;;4973381;28;20054;-73
2022/02/28 02:16:25;;;;;;;12.05;5.25;;;;;;;;;;4986165;28;20054;-74
2022/02/28 02:18:51;;;;;;;9.60;5.35;;;;;;;;;;4979556;28;20046;-73
2022/02/28 02:21:18;;;;;;;14.90;5.18;;;;;;;;;;4986329;28;20721;-74
2022/02/28 02:23:44;;;;;;;11.25;4.97;;;;;;;;;;4989178;28;20381;-73
2022/02/28 02:26:16;;;;;;;10.13;5.07;;;;;;;;;;4971512;28;20058;-74
2022/02/28 02:28:43;;;;;;;9.98;6.03;;;;;;;;;;4983231;28;20042;-74
2022/02/28 02:31:10;;;;;;;10.60;5.13;;;;;;;;;;4977472;28;20049;-74
2022/02/28 02:33:38;;;;;;;8.18;4.72;;;;;;;;;;4989323;28;20052;-73
2022/02/28 02:36:05;;;;;;;8.60;4.82;;;;;;;;;;4977251;28;20050;-73
2022/02/28 02:38:34;;;;;;;10.63;5.07;;;;;;;;;;4996722;28;20050;-74
2022/02/28 02:41:01;;;;;;;8.68;4.75;;;;;;;;;;4979915;28;20050;-73
2022/02/28 02:43:27;;;;;;;8.35;4.97;;;;;;;;;;4976192;28;20055;-74
2022/02/28 02:45:53;;;;;;;11.02;4.85;;;;;;;;;;4985939;28;20503;-74
2022/02/28 02:48:21;;;;;;;9.63;5.32;;;;;;;;;;4975682;28;20547;-74
2022/02/28 02:50:48;;;;;;;7.22;4.90;;;;;;;;;;4992490;28;20472;-74
2022/02/28 02:53:15;;;;;;;8.80;4.65;;;;;;;;;;4974491;28;20105;-74
2022/02/28 02:55:42;;;;;;;12.13;4.95;;;;;;;;;;4978120;28;20038;-74
2022/02/28 02:58:13;;;;;;;11.43;5.32;;;;;;;;;;4982569;28;20077;-74
2022/02/28 03:00:41;;;;;;;9.38;4.90;;;;;;;;;;4978227;28;20377;-74
2022/02/28 03:03:08;;;;;;;10.63;5.35;;;;;;;;;;4985176;28;20555;-74
2022/02/28 03:05:36;;;;;;;8.60;4.45;;;;;;;;;;4975896;28;20046;-74
2022/02/28 03:08:02;;;;;;;10.18;5.32;;;;;;;;;;4980490;28;20066;-73
2022/02/28 03:10:28;;;;;;;11.65;5.03;;;;;;;;;;4976886;28;20050;-73
2022/02/28 03:12:55;;;;;;;10.02;4.97;;;;;;;;;;4984088;28;20385;-73
2022/02/28 03:15:21;;;;;;;8.65;4.53;;;;;;;;;;4985887;28;20137;-73
2022/02/28 03:17:48;;;;;;;11.07;5.25;;;;;;;;;;4977577;28;20089;-73
2022/02/28 03:20:14;;;;;;;8.25;4.80;;;;;;;;;;4981897;28;20531;-72
2022/02/28 03:22:40;;;;;;;11.38;5.53;;;;;;;;;;4974368;28;20046;-74
2022/02/28 03:25:07;;;;;;;12.50;5.30;;;;;;;;;;4984330;28;20042;-73
2022/02/28 03:27:33;;;;;;;7.72;4.82;;;;;;;;;;4984197;28;20060;-73
2022/02/28 03:30:00;;;;;;;11.50;5.22;;;;;;;;;;4976254;28;20057;-73
2022/02/28 03:32:27;;;;;;;10.02;5.10;;;;;;;;;;4984835;28;20046;-73
2022/02/28 03:34:53;;;;;;;10.27;5.20;;;;;;;;;;4975953;28;20534;-73
2022/02/28 03:37:19;;;;;;;10.88;5.32;;;;;;;;;;4979545;28;20049;-73
2022/02/28 03:39:45;;;;;;;8.38;4.68;;;;;;;;;;4979357;28;20787;-73
2022/02/28 03:42:12;;;;;;;8.00;4.57;;;;;;;;;;4981478;28;20057;-72
2022/02/28 03:44:38;;;;;;;7.75;4.47;;;;;;;;;;4991374;28;20263;-72
2022/02/28 03:47:04;;;;;;;10.43;4.95;;;;;;;;;;4973963;28;20052;-72
2022/02/28 03:49:31;;;;;;;11.55;4.95;;;;;;;;;;4972693;28;20500;-71
2022/02/28 03:51:58;;;;;;;10.95;5.50;;;;;;;;;;4971492;28;20046;-71
2022/02/28 03:54:24;;;;;;;9.20;4.88;;;;;;;;;;4981805;28;20042;-71
2022/02/28 03:56:50;;;;;;;11.88;5.20;;;;;;;;;;4975406;28;21175;-72
2022/02/28 03:59:17;;;;;;;8.75;4.78;;;;;;;;;;4981788;28;20054;-72
2022/02/28 04:01:43;;;;;;;8.07;4.60;;;;;;;;;;4978701;28;20496;-72
2022/02/28 04:04:10;;;;;;;8.98;4.75;;;;;;;;;;4970044;28;20085;-72
2022/02/28 04:06:36;;;;;;;9.55;4.88;;;;;;;;;;4980492;28;20073;-72
2022/02/28 04:09:04;;;;;;;10.38;4.90;;;;;;;;;;4974908;28;20053;-73
2022/02/28 04:11:31;;;;;;;10.38;4.93;;;;;;;;;;4984791;28;20415;-74
2022/02/28 04:13:57;;;;;;;7.45;4.60;;;;;;;;;;4984473;28;20050;-74
2022/02/28 04:16:28;;;;;;;9.15;5.15;;;;;;;;;;4980829;28;20638;-74
2022/02/28 04:18:55;;;;;;;10.50;5.22;;;;;;;;;;4982521;28;20925;-74
2022/02/28 04:21:21;;;;;;;8.00;4.45;;;;;;;;;;4974253;28;20061;-74
2022/02/28 04:23:51;;;;;;;8.05;5.10;;;;;;;;;;4984257;28;20439;-73
2022/02/28 04:26:18;;;;;;;10.07;5.25;;;;;;;;;;4967942;28;20061;-73
2022/02/28 04:28:45;;;;;;;9.85;4.75;;;;;;;;;;4983158;28;20073;-74
2022/02/28 04:31:11;;;;;;;12.35;4.82;;;;;;;;;;4979243;28;20053;-73
2022/02/28 04:33:39;;;;;;;10.15;5.10;;;;;;;;;;4976632;28;20054;-72
2022/02/28 04:36:05;;;;;;;10.32;4.78;;;;;;;;;;4980709;28;20046;-73
2022/02/28 04:38:32;;;;;;;10.10;5.18;;;;;;;;;;4974978;28;20038;-72
2022/02/28 04:40:58;;;;;;;9.25;5.30;;;;;;;;;;4986080;28;20728;-73
2022/02/28 04:43:24;;;;;;;8.02;4.60;;;;;;;;;;4973248;28;20057;-72
2022/02/28 04:45:51;;;;;;;9.48;5.63;;;;;;;;;;4978611;28;20046;-73
2022/02/28 04:48:17;;;;;;;12.50;6.13;;;;;;;;;;4983306;28;20050;-73
2022/02/28 04:50:43;;;;;;;12.85;6.43;;;;;;;;;;4974226;28;20050;-73
2022/02/28 04:53:10;;;;;;;11.02;5.88;;;;;;;;;;4982931;28;20049;-73
2022/02/28 04:55:36;;;;;;;13.93;6.43;;;;;;;;;;4977003;28;20046;-73
2022/02/28 04:58:02;;;;;;;12.82;6.35;;;;;;;;;;4976172;28;20046;-73
2022/02/28 05:00:29;;;;;;;9.68;5.65;;;;;;;;;;4984394;28;20073;-73
2022/02/28 05:02:55;;;;;;;11.40;5.38;;;;;;;;;;4982648;28;20350;-72
2022/02/28 05:05:22;;;;;;;15.48;6.55;;;;;;;;;;4975666;28;20471;-72
2022/02/28 05:07:48;;;;;;;13.52;6.00;;;;;;;;;;4980797;28;20100;-73
2022/02/28 05:10:14;;;;;;;10.55;5.70;;;;;;;;;;4977031;28;20558;-72
2022/02/28 05:12:47;;;;;;;9.35;5.43;;;;;;;;;;4973252;28;20536;-73
2022/02/28 05:15:13;;;;;;;11.15;5.57;;;;;;;;;;4981409;28;20057;-72
2022/02/28 05:17:39;;;;;;;11.35;5.35;;;;;;;;;;4975322;28;20419;-73
2022/02/28 05:20:06;;;;;;;11.65;5.15;;;;;;;;;;4982228;28;20058;-72
2022/02/28 05:22:32;;;;;;;11.10;5.20;;;;;;;;;;4977780;28;20744;-72
2022/02/28 05:24:59;;;;;;;9.98;5.47;;;;;;;;;;4969008;28;20053;-72
2022/02/28 05:27:26;;;;;;;9.68;5.20;;;;;;;;;;4981727;28;20096;-72
2022/02/28 05:29:52;;;;;;;8.73;4.65;;;;;;;;;;4977560;28;20054;-73
2022/02/28 05:32:18;;;;;;;9.50;5.40;;;;;;;;;;4987267;28;20050;-73
2022/02/28 05:34:44;;;;;;;9.77;5.18;;;;;;;;;;4985233;28;20399;-72
2022/02/28 05:37:11;;;;;;;11.27;5.22;;;;;;;;;;4971949;28;20042;-72
2022/02/28 05:39:37;;;;;;;8.38;4.93;;;;;;;;;;4982136;28;20042;-72
2022/02/28 05:42:05;;;;;;;11.45;5.60;;;;;;;;;;4978962;28;20046;-72
2022/02/28 05:44:31;;;;;;;10.15;4.85;;;;;;;;;;4986713;28;20058;-73
2022/02/28 05:46:57;;;;;;;9.50;5.15;;;;;;;;;;4978301;28;20060;-73
2022/02/28 05:49:24;;;;;;;9.80;4.95;;;;;;;;;;4987196;28;20312;-73
2022/02/28 05:51:51;;;;;;;10.00;5.25;;;;;;;;;;4979320;28;20443;-73
2022/02/28 05:54:17;;;;;;;9.65;5.00;;;;;;;;;;4986935;28;20061;-73
2022/02/28 05:56:44;;;;;;;11.23;5.47;;;;;;;;;;4989803;28;20061;-73
2022/02/28 05:59:10;;;;;;;11.60;5.82;;;;;;;;;;4980019;28;20050;-73
2022/02/28 06:01:37;;;;;;;12.52;5.40;;;;;;;;;;4979955;28;20046;-73
2022/02/28 06:04:04;;;;;;;10.30;5.43;;;;;;;;;;4973764;28;20058;-73
2022/02/28 06:06:31;;;;;;;10.52;5.43;;;;;;;;;;4973521;28;20054;-73
2022/02/28 06:08:57;;;;;;;10.30;5.15;;;;;;;;;;4982311;28;20050;-73
2022/02/28 06:11:25;;;;;;;9.10;5.43;;;;;;;;;;4972998;28;20065;-73
2022/02/28 06:13:51;;;;;;;8.40;4.95;;;;;;;;;;4986772;28;20729;-73
2022/02/28 06:16:18;;;;;;;9.60;5.65;;;;;;;;;;4979239;28;20451;-73
2022/02/28 06:18:44;;;;;;;11.50;6.07;;;;;;;;;;4983413;28;20058;-73
2022/02/28 06:21:10;;;;;;;10.77;5.93;;;;;;;;;;4975146;28;20050;-73
2022/02/28 06:23:37;;;;;;;9.95;4.97;;;;;;;;;;4979413;28;20261;-73
2022/02/28 06:26:03;;;;;;;10.57;5.43;;;;;;;;;;4975558;28;20050;-73
2022/02/28 06:28:32;;;;;;;8.98;5.32;;;;;;;;;;4978297;28;20046;-73
2022/02/28 06:30:59;;;;;;;12.18;6.45;;;;;;;;;;4984855;28;20052;-73
2022/02/28 06:33:25;;;;;;;10.05;5.80;;;;;;;;;;4972950;28;20050;-73
2022/02/28 06:35:52;;;;;;;10.23;5.50;;;;;;;;;;4981499;28;20046;-73
2022/02/28 06:38:19;;;;;;;11.10;5.20;;;;;;;;;;4983403;28;20046;-73
2022/02/28 06:40:46;;;;;;;11.35;5.72;;;;;;;;;;4975363;28;20134;-73
2022/02/28 06:43:16;;;;;;;12.75;5.97;;;;;;;;;;4982572;28;20046;-73
2022/02/28 06:45:43;;;;;;;11.20;5.50;;;;;;;;;;4976018;28;20046;-72
2022/02/28 06:48:10;;;;;;;12.57;5.65;;;;;;;;;;4980434;28;20412;-73
2022/02/28 06:50:36;;;;;;;10.55;5.25;;;;;;;;;;4974716;28;20491;-73
2022/02/28 06:53:02;;;;;;;10.55;5.88;;;;;;;;;;4983796;28;20066;-73
2022/02/28 06:55:34;;;;;;;17.70;6.28;;;;;;;;;;4986296;28;20053;-73
2022/02/28 06:58:00;;;;;;;12.60;5.72;;;;;;;;;;4977681;28;20496;-73
2022/02/28 07:00:30;;;;;;;9.63;5.20;;;;;;;;;;4991263;28;20162;-72
2022/02/28 07:02:56;;;;;;;11.73;6.03;;;;;;;;;;4968267;28;20125;-72
2022/02/28 07:05:22;;;;;;;10.00;5.80;;;;;;;;;;4978012;28;20057;-73
2022/02/28 07:07:49;;;;;;;9.73;5.53;;;;;;;;;;4976680;28;20049;-73
2022/02/28 07:10:15;;;;;;;9.40;5.63;;;;;;;;;;4984812;28;20038;-72
2022/02/28 07:12:41;;;;;;;10.05;5.60;;;;;;;;;;4986954;28;20500;-73
2022/02/28 07:15:08;;;;;;;10.80;6.13;;;;;;;;;;4972183;28;20424;-72
2022/02/28 07:17:35;;;;;;;9.27;5.80;;;;;;;;;;4980182;28;20050;-73
2022/02/28 07:20:01;;;;;;;10.98;5.93;;;;;;;;;;4974765;28;20053;-73
2022/02/28 07:22:28;;;;;;;11.52;6.05;;;;;;;;;;4987296;28;20061;-72
2022/02/28 07:24:55;;;;;;;12.48;5.68;;;;;;;;;;4982866;28;20165;-73
2022/02/28 07:27:21;;;;;;;10.60;5.63;;;;;;;;;;4983646;28;20050;-73
2022/02/28 07:29:47;;;;;;;10.45;6.03;;;;;;;;;;4979816;28;20251;-72
2022/02/28 07:32:14;;;;;;;11.30;4.72;;;;;;;;;;4965949;28;20043;-73
2022/02/28 07:34:40;;;;;;;9.73;5.63;;;;;;;;;;4980897;28;20050;-73
2022/02/28 07:37:07;;;;;;;9.38;5.82;;;;;;;;;;4975785;28;20068;-73
2022/02/28 07:39:34;;;;;;;12.50;7.00;;;;;;;;;;4985058;28;20051;-72
2022/02/28 07:42:00;;;;;;;14.27;5.97;;;;;;;;;;4983685;28;20055;-73
2022/02/28 07:44:27;;;;;;;10.93;6.22;;;;;;;;;;4970858;28;20284;-73
2022/02/28 07:46:54;;;;;;;11.65;6.20;;;;;;;;;;4981869;28;20434;-73
2022/02/28 07:49:20;;;;;;;11.02;6.15;;;;;;;;;;4977204;28;20938;-73
2022/02/28 07:51:47;;;;;;;14.20;6.47;;;;;;;;;;4981218;28;20046;-71
2022/02/28 07:54:13;;;;;;;11.32;6.90;;;;;;;;;;4980111;28;20490;-71
2022/02/28 07:56:39;;;;;;;12.30;6.32;;;;;;;;;;4976281;28;20747;-72
2022/02/28 07:59:05;;;;;;;13.95;6.40;;;;;;;;;;4976377;28;20065;-71
2022/02/28 08:01:32;;;;;;;12.80;6.90;;;;;;;;;;4975260;28;20056;-72
2022/02/28 08:03:59;;;;;;;14.70;6.63;;;;;;;;;;4978773;28;20046;-72
2022/02/28 08:06:25;;;;;;;17.02;7.10;;;;;;;;;;4975194;28;20096;-72
2022/02/28 08:08:52;;;;;;;16.58;6.70;;;;;;;;;;4982154;28;20054;-72
2022/02/28 08:11:18;;;;;;;10.95;6.57;;;;;;;;;;4970608;28;20050;-72
2022/02/28 08:13:48;;;;;;;12.07;6.60;;;;;;;;;;4971233;28;20566;-72
2022/02/28 08:16:14;;;;;;;11.38;6.90;;;;;;;;;;4987605;28;20555;-71
2022/02/28 08:18:42;;;;;;;14.63;7.57;;;;;;;;;;4969006;28;20118;-72
2022/02/28 08:21:08;;;;;;;14.35;7.00;;;;;;;;;;4966748;28;20046;-72
2022/02/28 08:23:34;;;;;;;11.07;6.20;;;;;;;;;;4970301;28;20112;-73
2022/02/28 08:26:01;;;;;;;11.48;6.07;;;;;;;;;;4974581;28;20050;-72
2022/02/28 08:28:27;;;;;;;10.63;6.00;;;;;;;;;;4993626;28;20051;-72
2022/02/28 08:30:53;;;;;;;13.15;6.90;;;;;;;;;;4962271;28;20495;-72
2022/02/28 08:33:20;;;;;;;13.60;6.40;;;;;;;;;;4981046;28;20042;-71
2022/02/28 08:35:46;;;;;;;14.02;5.90;;;;;;;;;;4971160;28;20061;-71
2022/02/28 08:38:15;;;;;;;13.60;6.25;;;;;;;;;;4980570;28;20043;-71
2022/02/28 08:40:41;;;;;;;10.32;6.10;;;;;;;;;;4970824;28;20263;-72
2022/02/28 08:43:07;;;;;;;11.80;6.60;;;;;;;;;;4981597;28;20054;-72
2022/02/28 08:45:34;;;;;;;10.80;5.95;;;;;;;;;;4981119;28;20062;-72
2022/02/28 08:48:00;;;;;;;10.90;6.57;;;;;;;;;;4977337;28;20303;-72
2022/02/28 08:50:26;;;;;;;9.98;5.45;;;;;;;;;;4975978;28;20715;-71
2022/02/28 08:52:53;;;;;;;13.13;5.80;;;;;;;;;;4970306;28;20046;-72
2022/02/28 08:55:19;;;;;;;9.85;6.43;;;;;;;;;;4981136;28;20062;-71
2022/02/28 08:57:45;;;;;;;11.93;5.72;;;;;;;;;;4968177;28;20053;-72
2022/02/28 09:00:12;;;;;;;10.05;5.22;;;;;;;;;;4979715;28;20527;-72
2022/02/28 09:02:38;;;;;;;10.88;6.38;;;;;;;;;;4978132;28;20042;-71
2022/02/28 09:05:05;;;;;;;11.30;5.97;;;;;;;;;;4969033;28;20488;-71
2022/02/28 09:07:32;;;;;;;12.45;5.78;;;;;;;;;;4976663;28;20423;-72
2022/02/28 09:09:58;;;;;;;11.70;6.03;;;;;;;;;;4975140;28;20061;-72
2022/02/28 09:12:24;;;;;;;10.63;6.13;;;;;;;;;;4991274;28;20482;-72
2022/02/28 09:14:51;;;;;;;9.07;5.53;;;;;;;;;;4977293;28;20050;-72
2022/02/28 09:17:17;;;;;;;10.65;6.05;;;;;;;;;;4971968;28;20046;-72
2022/02/28 09:19:44;;;;;;;12.93;5.07;;;;;;;;;;4975789;28;20057;-73
2022/02/28 09:22:10;;;;;;;8.55;5.10;;;;;;;;;;4969956;28;20057;-71
2022/02/28 09:24:36;;;;;;;11.55;5.57;;;;;;;;;;4980843;28;20053;-72
2022/02/28 09:27:04;;;;;;;12.82;5.70;;;;;;;;;;4975202;28;20077;-72
2022/02/28 09:29:30;;;;;;;10.52;5.53;;;;;;;;;;4981479;28;20050;-72
2022/02/28 09:31:57;;;;;;;11.88;6.13;;;;;;;;;;4962165;28;20057;-73
2022/02/28 09:34:23;;;;;;;11.80;5.25;;;;;;;;;;4980984;28;20134;-72
2022/02/28 09:36:51;;;;;;;10.32;6.10;;;;;;;;;;4969770;28;20054;-72
2022/02/28 09:39:18;;;;;;;10.43;5.75;;;;;;;;;;4973022;28;20061;-72
2022/02/28 09:41:45;;;;;;;10.75;5.57;;;;;;;;;;4981306;28;20759;-72
2022/02/28 09:44:14;;;;;;;11.15;6.35;;;;;;;;;;4970625;28;20061;-73
2022/02/28 09:46:44;;;;;;;9.55;5.80;;;;;;;;;;4975837;28;20086;-72
2022/02/28 09:49:10;;;;;;;11.23;6.13;;;;;;;;;;4986514;28;20504;-72
2022/02/28 09:51:37;;;;;;;10.43;5.30;;;;;;;;;;4971396;28;20093;-73
2022/02/28 09:54:04;;;;;;;10.60;5.97;;;;;;;;;;4983486;28;20046;-72
2022/02/28 09:56:32;;;;;;;11.43;6.00;;;;;;;;;;4969484;28;20563;-72
2022/02/28 09:58:58;;;;;;;11.30;5.88;;;;;;;;;;4972397;28;20849;-72
2022/02/28 10:01:45;;;;;;;7.55;5.00;;;;;;;;;;4964327;28;20050;-73
2022/02/28 10:04:13;;;;;;;10.07;5.90;;;;;;;;;;4989473;28;20046;-72
2022/02/28 10:06:40;;;;;;;9.32;5.43;;;;;;;;;;4979714;28;20133;-72
2022/02/28 10:09:08;;;;;;;13.25;6.35;;;;;;;;;;4969877;28;20582;-72
2022/02/28 10:11:39;;;;;;;10.98;6.10;;;;;;;;;;4978440;28;20050;-72
2022/02/28 10:14:06;;;;;;;16.17;6.68;;;;;;;;;;4965793;28;20464;-71
2022/02/28 10:16:47;;;;;;;10.60;5.47;;;;;;;;;;4973792;28;20283;-71
2022/02/28 10:19:13;;;;;;;9.43;4.90;;;;;;;;;;4975714;28;20089;-71
2022/02/28 10:21:44;;;;;;;10.32;5.45;;;;;;;;;;4981763;28;20075;-72
2022/02/28 10:24:25;;;;;;;11.13;5.13;;;;;;;;;;4981434;28;20050;-71
2022/02/28 10:26:56;;;;;;;9.90;5.70;;;;;;;;;;4978232;28;20049;-72
2022/02/28 10:29:25;;;;;;;10.98;6.85;;;;;;;;;;4980616;28;20054;-72
2022/02/28 10:31:51;;;;;;;8.82;5.75;;;;;;;;;;4974427;28;20415;-72
2022/02/28 10:34:19;;;;;;;9.85;5.47;;;;;;;;;;4983551;28;20050;-72
2022/02/28 10:36:46;;;;;;;10.05;5.30;;;;;;;;;;4976312;28;20054;-72
2022/02/28 10:39:13;;;;;;;10.63;5.82;;;;;;;;;;4984416;28;20054;-71
2022/02/28 10:41:41;;;;;;;10.52;5.47;;;;;;;;;;4973383;28;20053;-72
2022/02/28 10:44:08;;;;;;;11.13;6.05;;;;;;;;;;4970946;28;20522;-72
2022/02/28 10:46:42;;;;;;;9.20;5.53;;;;;;;;;;4977467;28;20500;-71
2022/02/28 10:49:08;;;;;;;9.35;5.88;;;;;;;;;;4964658;28;20588;-73
2022/02/28 10:51:47;;;;;;;12.13;6.25;;;;;;;;;;4984728;28;20802;-72
2022/02/28 10:54:23;;;;;;;16.85;6.45;;;;;;;;;;4970540;28;20054;-71
2022/02/28 10:56:49;;;;;;;11.43;6.13;;;;;;;;;;4980075;28;20058;-71
2022/02/28 10:59:16;;;;;;;11.57;6.60;;;;;;;;;;4976313;28;20462;-71
2022/02/28 11:01:42;;;;;;;9.35;5.22;;;;;;;;;;4989232;28;20053;-71
2022/02/28 11:04:09;;;;;;;9.30;6.15;;;;;;;;;;4984359;28;20050;-71
2022/02/28 11:06:37;;;;;;;12.20;6.07;;;;;;;;;;4975778;28;20050;-71
2022/02/28 11:09:04;;;;;;;10.27;6.30;;;;;;;;;;4979715;28;20057;-71
2022/02/28 11:11:31;;;;;;;10.32;6.22;;;;;;;;;;4973422;28;20039;-71
2022/02/28 11:13:58;;;;;;;13.40;6.78;;;;;;;;;;4981919;28;20058;-71
2022/02/28 11:16:25;;;;;;;10.35;6.68;;;;;;;;;;4981828;28;20058;-71
2022/02/28 11:19:00;;;;;;;10.38;6.53;;;;;;;;;;4979738;28;20252;-72
2022/02/28 11:21:27;;;;;;;13.95;6.75;;;;;;;;;;4976090;28;20612;-71
2022/02/28 11:23:53;;;;;;;11.68;7.30;;;;;;;;;;4969819;28;20424;-71
2022/02/28 11:26:20;;;;;;;17.77;8.00;;;;;;;;;;4983356;28;20169;-72
2022/02/28 11:28:46;;;;;;;14.48;8.57;;;;;;;;;;4976855;28;20051;-72
2022/02/28 11:31:14;;;;;;;13.80;7.70;;;;;;;;;;4980485;28;20053;-72
2022/02/28 11:33:59;;;;;;;11.32;7.18;;;;;;;;;;4977264;28;20051;-71
2022/02/28 11:36:25;;;;;;;10.70;6.75;;;;;;;;;;4976413;28;20060;-71
2022/02/28 11:38:52;;;;;;;11.52;6.95;;;;;;;;;;4975350;28;20809;-71
2022/02/28 11:41:19;;;;;;;13.00;7.22;;;;;;;;;;4974995;28;20092;-72
2022/02/28 11:43:47;;;;;;;10.02;6.50;;;;;;;;;;4980472;28;20056;-71
2022/02/28 11:46:15;;;;;;;14.27;6.20;;;;;;;;;;4975240;28;20171;-72
2022/02/28 11:48:45;;;;;;;12.38;6.43;;;;;;;;;;4973507;28;20049;-71
2022/02/28 11:51:23;;;;;;;10.40;6.05;;;;;;;;;;4969879;28;20081;-71
2022/02/28 11:53:53;;;;;;;11.30;5.95;;;;;;;;;;4981488;28;20125;-71
2022/02/28 11:56:22;;;;;;;10.85;6.72;;;;;;;;;;4981827;28;20073;-71
2022/02/28 11:59:00;;;;;;;11.85;7.05;;;;;;;;;;4968043;28;20050;-72
2022/02/28 12:01:29;;;;;;;10.13;5.78;;;;;;;;;;4979840;28;20054;-70
2022/02/28 12:04:11;;;;;;;11.52;5.72;;;;;;;;;;4971123;28;20435;-70
2022/02/28 12:06:53;;;;;;;9.20;5.93;;;;;;;;;;4997620;28;20077;-71
2022/02/28 12:09:35;;;;;;;9.27;5.95;;;;;;;;;;4966823;28;20047;-71
2022/02/28 12:12:31;;;;;;;8.35;5.15;;;;;;;;;;4982225;28;20511;-70
2022/02/28 12:14:59;;;;;;;13.85;6.93;;;;;;;;;;4968638;28;20117;-70
2022/02/28 12:17:32;;;;;;;11.73;6.25;;;;;;;;;;4983008;28;20123;-71
2022/02/28 12:20:14;;;;;;;9.23;5.68;;;;;;;;;;4975530;28;20766;-71
2022/02/28 12:22:53;;;;;;;14.13;6.72;;;;;;;;;;4979017;28;20056;-70
2022/02/28 12:25:39;;;;;;;11.55;6.80;;;;;;;;;;4981224;28;20367;-71
2022/02/28 12:28:29;;;;;;;11.15;6.40;;;;;;;;;;4974362;28;21884;-71
2022/02/28 12:31:00;;;;;;;13.50;7.22;;;;;;;;;;4975244;28;20303;-70
2022/02/28 12:33:33;;;;;;;11.73;6.10;;;;;;;;;;4964316;28;20050;-71
2022/02/28 12:36:02;;;;;;;8.43;5.80;;;;;;;;;;4977082;28;20468;-70
2022/02/28 12:38:29;;;;;;;9.40;6.22;;;;;;;;;;4971315;28;20061;-70
2022/02/28 12:40:57;;;;;;;9.48;6.10;;;;;;;;;;4980471;28;20042;-70
2022/02/28 12:43:24;;;;;;;9.32;6.45;;;;;;;;;;4976434;28;20050;-70
2022/02/28 12:45:52;;;;;;;11.75;7.30;;;;;;;;;;4975105;28;20046;-71
2022/02/28 12:48:19;;;;;;;13.67;6.67;;;;;;;;;;4982685;28;20050;-70
2022/02/28 12:50:47;;;;;;;27.05;8.38;;;;;;;;;;4971121;28;20089;-70
2022/02/28 12:53:16;;;;;;;11.40;5.97;;;;;;;;;;4982079;28;20149;-70
2022/02/28 12:55:54;;;;;;;8.88;5.90;;;;;;;;;;4979878;28;20056;-70
2022/02/28 12:58:31;;;;;;;10.63;6.40;;;;;;;;;;4977270;28;20350;-70
2022/02/28 13:01:11;;;;;;;8.90;5.75;;;;;;;;;;4963704;28;20046;-70
2022/02/28 13:03:39;;;;;;;9.95;6.15;;;;;;;;;;4981208;28;20555;-70
2022/02/28 13:06:06;;;;;;;10.13;6.05;;;;;;;;;;4989419;28;20998;-70
2022/02/28 13:08:33;;;;;;;8.18;5.63;;;;;;;;;;4974042;28;20042;-69
2022/02/28 13:11:08;;;;;;;10.27;6.10;;;;;;;;;;4982527;28;20042;-71
2022/02/28 13:13:35;;;;;;;8.45;5.90;;;;;;;;;;4968529;28;20050;-70
2022/02/28 13:16:02;;;;;;;9.55;6.15;;;;;;;;;;4976664;28;20057;-71
2022/02/28 13:18:28;;;;;;;9.88;6.22;;;;;;;;;;4974088;28;20053;-69
2022/02/28 13:20:58;;;;;;;10.88;6.47;;;;;;;;;;4983169;28;20046;-69
2022/02/28 13:23:44;;;;;;;8.73;5.80;;;;;;;;;;4977974;28;20058;-70
2022/02/28 13:26:10;;;;;;;8.95;5.88;;;;;;;;;;4981309;28;20412;-69
2022/02/28 13:28:38;;;;;;;9.77;6.00;;;;;;;;;;4984533;28;20129;-70
2022/02/28 13:31:06;;;;;;;11.45;6.00;;;;;;;;;;4978106;28;20053;-70
2022/02/28 13:33:33;;;;;;;7.95;5.78;;;;;;;;;;4984078;28;20050;-69
2022/02/28 13:36:00;;;;;;;11.70;6.03;;;;;;;;;;4977488;28;20499;-69
2022/02/28 13:38:27;;;;;;;9.35;6.03;;;;;;;;;;4976872;28;20065;-69
2022/02/28 13:40:53;;;;;;;10.25;6.55;;;;;;;;;;4965446;28;20054;-69
2022/02/28 13:43:20;;;;;;;10.70;6.22;;;;;;;;;;4978338;28;20069;-69
2022/02/28 13:45:48;;;;;;;9.55;6.30;;;;;;;;;;4982267;28;20061;-69
2022/02/28 13:48:18;;;;;;;9.70;5.75;;;;;;;;;;4972890;28;20104;-68
2022/02/28 13:50:45;;;;;;;9.85;5.22;;;;;;;;;;4982674;28;20047;-70
2022/02/28 13:53:12;;;;;;;15.10;6.55;;;;;;;;;;4977510;28;20048;-69
2022/02/28 13:55:43;;;;;;;9.90;5.93;;;;;;;;;;4986281;28;20092;-69
2022/02/28 13:58:10;;;;;;;10.50;6.65;;;;;;;;;;4977225;28;20074;-70
2022/02/28 14:00:37;;;;;;;8.50;6.00;;;;;;;;;;4977664;28;20050;-69
2022/02/28 14:03:07;;;;;;;10.10;6.65;;;;;;;;;;4984015;28;20054;-69
2022/02/28 14:05:34;;;;;;;10.85;6.28;;;;;;;;;;4972191;28;20061;-69
2022/02/28 14:08:02;;;;;;;11.40;7.00;;;;;;;;;;4986217;28;20129;-69
2022/02/28 14:10:29;;;;;;;10.57;7.07;;;;;;;;;;4977374;28;20504;-69
2022/02/28 14:12:55;;;;;;;10.00;5.80;;;;;;;;;;4991479;28;20302;-69
2022/02/28 14:15:23;;;;;;;12.43;7.20;;;;;;;;;;4975055;28;20460;-73
2022/02/28 14:17:56;;;;;;;11.30;5.93;;;;;;;;;;4971583;28;20141;-69
2022/02/28 14:20:23;;;;;;;10.70;6.32;;;;;;;;;;4985219;28;20578;-71
2022/02/28 14:23:08;;;;;;;10.93;6.50;;;;;;;;;;4978118;28;20416;-70
2022/02/28 14:25:34;;;;;;;10.02;6.50;;;;;;;;;;4987680;28;20363;-70
2022/02/28 14:28:03;;;;;;;9.95;6.40;;;;;;;;;;4979253;28;20511;-69
2022/02/28 14:30:32;;;;;;;12.68;6.05;;;;;;;;;;4982384;28;20132;-69
2022/02/28 14:33:05;;;;;;;9.57;6.30;;;;;;;;;;4974608;28;20043;-70
2022/02/28 14:35:32;;;;;;;10.02;6.18;;;;;;;;;;4983375;28;20339;-69
2022/02/28 14:38:00;;;;;;;11.27;6.45;;;;;;;;;;4988495;28;20060;-69